createdAt,value
2022-08-25T00:03:39.488Z,5.47
2022-08-25T00:06:08.787Z,6.60
2022-08-25T00:08:39.221Z,6.72
2022-08-25T00:11:16.317Z,8.43
2022-08-25T00:13:46.773Z,5.05
2022-08-25T00:18:46.120Z,5.15
2022-08-25T00:21:15.442Z,6.35
2022-08-25T00:23:45.591Z,5.35
2022-08-25T00:26:14.538Z,6.43
2022-08-25T00:28:43.343Z,5.63
2022-08-25T00:31:20.326Z,6.47
2022-08-25T00:33:50.733Z,7.45
2022-08-25T00:36:19.899Z,6.13
2022-08-25T00:38:48.946Z,9.30
2022-08-25T00:41:24.224Z,5.05
2022-08-25T00:44:01.520Z,4.50
2022-08-25T00:46:34.176Z,5.57
2022-08-25T00:49:11.716Z,11.48
2022-08-25T00:54:50.962Z,3.17
2022-08-25T00:57:34.094Z,6.85
2022-08-25T01:00:15.947Z,6.80
2022-08-25T01:02:44.107Z,4.28
2022-08-25T01:05:12.734Z,5.10
2022-08-25T01:07:43.555Z,6.65
2022-08-25T01:10:17.262Z,5.60
2022-08-25T01:12:44.729Z,7.88
2022-08-25T01:15:19.251Z,5.88
2022-08-25T01:17:51.210Z,5.60
2022-08-25T01:20:20.880Z,5.82
2022-08-25T01:22:53.827Z,4.80
2022-08-25T01:25:38.628Z,7.53
2022-08-25T01:28:06.684Z,6.32
2022-08-25T01:30:35.764Z,7.80
2022-08-25T01:33:08.702Z,5.57
2022-08-25T01:35:37.534Z,8.15
2022-08-25T01:38:07.874Z,5.63
2022-08-25T01:43:39.700Z,8.73
2022-08-25T01:46:07.190Z,7.65
2022-08-25T01:48:34.813Z,5.75
2022-08-25T01:51:05.430Z,8.73
2022-08-25T01:53:33.992Z,5.85
2022-08-25T01:56:12.061Z,6.03
2022-08-25T01:58:48.329Z,6.97
2022-08-25T02:01:21.365Z,8.57
2022-08-25T02:03:52.615Z,7.78
2022-08-25T02:06:29.755Z,6.07
2022-08-25T02:09:25.553Z,6.22
2022-08-25T02:11:53.659Z,8.30
2022-08-25T02:14:21.079Z,8.13
2022-08-25T02:16:52.794Z,8.57
2022-08-25T02:19:23.503Z,5.18
2022-08-25T02:21:52.605Z,11.43
2022-08-25T02:24:20.591Z,7.25
2022-08-25T02:26:49.885Z,8.85
2022-08-25T02:29:17.473Z,6.47
2022-08-25T02:31:46.002Z,6.45
2022-08-25T02:34:15.381Z,10.23
2022-08-25T02:36:44.193Z,11.68
2022-08-25T02:39:12.766Z,4.07
2022-08-25T02:41:40.450Z,8.82
2022-08-25T02:44:09.162Z,6.00
2022-08-25T02:46:37.982Z,8.05
2022-08-25T02:49:07.301Z,9.27
2022-08-25T02:51:36.044Z,6.70
2022-08-25T02:54:06.026Z,8.35
2022-08-25T02:56:34.128Z,7.80
2022-08-25T02:59:04.532Z,6.72
2022-08-25T03:01:33.065Z,8.70
2022-08-25T03:04:01.214Z,8.68
2022-08-25T03:06:28.844Z,7.95
2022-08-25T03:08:57.141Z,6.05
2022-08-25T03:11:26.759Z,10.18
2022-08-25T03:13:54.771Z,10.20
2022-08-25T03:16:27.914Z,11.52
2022-08-25T03:18:56.577Z,7.03
2022-08-25T03:21:26.553Z,10.33
2022-08-25T03:23:54.488Z,8.50
2022-08-25T03:26:41.205Z,9.73
2022-08-25T03:29:09.196Z,5.38
2022-08-25T03:31:37.005Z,6.75
2022-08-25T03:34:05.727Z,10.98
2022-08-25T03:36:33.512Z,10.10
2022-08-25T03:39:04.561Z,7.22
2022-08-25T03:41:34.365Z,5.10
2022-08-25T03:44:04.907Z,7.72
2022-08-25T03:46:45.601Z,7.25
2022-08-25T03:49:17.122Z,6.57
2022-08-25T03:51:48.673Z,4.63
2022-08-25T03:54:20.307Z,4.57
2022-08-25T03:56:48.580Z,9.52
2022-08-25T03:59:15.873Z,6.45
2022-08-25T04:01:44.979Z,6.55
2022-08-25T04:04:13.419Z,10.27
2022-08-25T04:06:43.849Z,6.75
2022-08-25T04:11:42.714Z,7.18
2022-08-25T04:14:13.112Z,6.68
2022-08-25T04:16:44.464Z,6.75
2022-08-25T04:19:12.424Z,9.60
2022-08-25T04:21:42.115Z,5.78
2022-08-25T04:24:12.708Z,5.43
2022-08-25T04:26:45.394Z,7.57
2022-08-25T04:29:15.686Z,8.82
2022-08-25T04:31:48.797Z,5.57
2022-08-25T04:34:29.918Z,7.20
2022-08-25T04:37:03.224Z,5.05
2022-08-25T04:39:32.784Z,9.93
2022-08-25T04:42:01.852Z,6.28
2022-08-25T04:44:32.256Z,5.47
2022-08-25T04:47:05.155Z,6.68
2022-08-25T04:49:33.718Z,8.68
2022-08-25T04:52:01.960Z,9.63
2022-08-25T04:54:37.044Z,5.18
2022-08-25T04:57:06.867Z,6.28
2022-08-25T04:59:34.719Z,6.57
2022-08-25T05:02:05.518Z,7.13
2022-08-25T05:04:35.622Z,7.93
2022-08-25T05:07:05.055Z,5.65
2022-08-25T05:09:33.719Z,12.18
2022-08-25T05:12:03.137Z,7.78
2022-08-25T05:14:46.935Z,6.75
2022-08-25T05:17:14.969Z,7.20
2022-08-25T05:19:43.127Z,6.18
2022-08-25T05:22:11.618Z,8.95
2022-08-25T05:24:39.108Z,4.78
2022-08-25T05:27:06.638Z,10.15
2022-08-25T05:29:34.524Z,7.63
2022-08-25T05:32:03.198Z,7.15
2022-08-25T05:34:32.329Z,6.95
2022-08-25T05:37:03.522Z,3.65
2022-08-25T05:39:37.470Z,7.15
2022-08-25T05:42:05.495Z,4.90
2022-08-25T05:44:35.621Z,6.65
2022-08-25T05:47:08.286Z,9.70
2022-08-25T05:49:36.832Z,6.90
2022-08-25T05:52:04.708Z,8.35
2022-08-25T05:54:34.024Z,6.47
2022-08-25T05:57:03.847Z,7.40
2022-08-25T05:59:36.357Z,7.53
2022-08-25T06:02:23.479Z,6.55
2022-08-25T06:04:50.965Z,6.10
2022-08-25T06:07:18.465Z,5.75
2022-08-25T06:09:49.013Z,5.63
2022-08-25T06:12:18.505Z,5.32
2022-08-25T06:14:46.898Z,7.85
2022-08-25T06:17:14.756Z,8.88
2022-08-25T06:19:42.224Z,4.20
2022-08-25T06:22:09.661Z,9.38
2022-08-25T06:24:38.315Z,8.93
2022-08-25T06:27:06.405Z,8.32
2022-08-25T06:29:34.491Z,10.10
2022-08-25T06:32:03.435Z,13.85
2022-08-25T06:34:35.111Z,8.02
2022-08-25T06:37:03.236Z,12.27
2022-08-25T06:39:32.968Z,5.60
2022-08-25T06:42:01.418Z,6.18
2022-08-25T06:44:33.277Z,10.05
2022-08-25T06:47:01.461Z,10.20
2022-08-25T06:49:34.161Z,8.90
2022-08-25T06:52:04.335Z,6.45
2022-08-25T06:54:33.874Z,6.57
2022-08-25T06:57:06.969Z,7.57
2022-08-25T06:59:35.892Z,5.15
2022-08-25T07:02:05.188Z,5.72
2022-08-25T07:04:35.318Z,11.75
2022-08-25T07:07:04.654Z,5.40
2022-08-25T07:09:39.078Z,13.60
2022-08-25T07:12:10.282Z,8.43
2022-08-25T07:14:39.781Z,10.13
2022-08-25T07:17:25.708Z,10.48
2022-08-25T07:19:57.495Z,12.35
2022-08-25T07:22:34.141Z,7.03
2022-08-25T07:25:06.404Z,8.45
2022-08-25T07:27:35.061Z,9.93
2022-08-25T07:30:08.555Z,11.00
2022-08-25T07:32:42.036Z,8.15
2022-08-25T07:35:19.045Z,18.10
2022-08-25T07:37:59.409Z,8.27
2022-08-25T07:40:33.468Z,9.00
2022-08-25T07:43:05.674Z,10.82
2022-08-25T07:45:49.050Z,6.75
2022-08-25T07:48:20.190Z,7.47
2022-08-25T07:50:50.317Z,7.43
2022-08-25T07:53:21.878Z,7.88
2022-08-25T07:55:50.882Z,9.75
2022-08-25T07:58:33.584Z,11.43
2022-08-25T08:03:56.873Z,7.82
2022-08-25T08:06:27.992Z,10.60
2022-08-25T08:09:04.264Z,10.82
2022-08-25T08:11:45.534Z,13.45
2022-08-25T08:14:22.770Z,7.10
2022-08-25T08:16:51.775Z,8.65
2022-08-25T08:19:23.037Z,7.85
2022-08-25T08:21:51.104Z,9.77
2022-08-25T08:24:44.352Z,7.20
2022-08-25T08:27:09.007Z,6.68
2022-08-25T08:29:37.695Z,8.57
2022-08-25T08:32:13.607Z,11.15
2022-08-25T08:34:44.563Z,11.00
2022-08-25T08:37:12.299Z,17.65
2022-08-25T08:39:41.297Z,8.55
2022-08-25T08:42:34.298Z,7.00
2022-08-25T08:45:26.402Z,5.78
2022-08-25T08:48:10.521Z,13.05
2022-08-25T08:51:19.919Z,4.75
2022-08-25T08:54:15.479Z,10.35
2022-08-25T08:56:55.695Z,7.28
2022-08-25T09:02:13.733Z,8.15
2022-08-25T09:04:52.531Z,5.82
2022-08-25T09:07:31.004Z,5.28
2022-08-25T09:10:09.578Z,13.98
2022-08-25T09:13:15.640Z,5.13
2022-08-25T09:16:33.812Z,7.35
2022-08-25T09:19:24.548Z,6.72
2022-08-25T09:22:00.978Z,8.63
2022-08-25T09:24:57.359Z,4.75
2022-08-25T09:27:40.920Z,7.72
2022-08-25T09:30:14.352Z,7.07
2022-08-25T09:32:48.971Z,5.53
2022-08-25T09:35:28.936Z,6.82
2022-08-25T09:38:03.028Z,12.68
2022-08-25T09:40:39.157Z,7.50
2022-08-25T09:43:34.950Z,8.95
2022-08-25T09:46:14.837Z,6.40
2022-08-25T09:49:14.666Z,10.90
2022-08-25T09:51:45.819Z,6.15
2022-08-25T09:54:33.946Z,7.78
2022-08-25T09:57:33.610Z,7.38
2022-08-25T10:00:22.623Z,9.00
2022-08-25T10:03:24.802Z,9.95
2022-08-25T10:06:13.286Z,4.78
2022-08-25T10:08:53.474Z,9.77
2022-08-25T10:14:25.205Z,13.05
2022-08-25T10:17:14.391Z,6.13
2022-08-25T10:19:43.593Z,6.57
2022-08-25T10:22:32.691Z,7.20
2022-08-25T10:25:04.765Z,4.82
2022-08-25T10:27:47.689Z,11.90
2022-08-25T10:30:32.273Z,7.15
2022-08-25T10:33:06.038Z,6.10
2022-08-25T10:35:55.992Z,6.80
2022-08-25T10:38:50.452Z,6.18
2022-08-25T10:42:01.706Z,11.23
2022-08-25T10:45:06.974Z,12.50
2022-08-25T10:47:54.922Z,5.70
2022-08-25T10:50:45.485Z,4.63
2022-08-25T10:53:46.376Z,8.40
2022-08-25T10:57:29.840Z,3.20
2022-08-25T11:00:20.109Z,5.88
2022-08-25T11:03:07.992Z,5.20
2022-08-25T11:05:57.508Z,3.35
2022-08-25T11:09:07.710Z,3.17
2022-08-25T11:11:40.144Z,5.82
2022-08-25T11:14:19.685Z,6.28
2022-08-25T11:16:56.674Z,5.63
2022-08-25T11:19:39.040Z,5.85
2022-08-25T11:22:15.302Z,6.18
2022-08-25T11:25:15.321Z,9.57
2022-08-25T11:28:43.692Z,4.90
2022-08-25T11:31:22.705Z,4.55
2022-08-25T11:36:36.935Z,9.57
2022-08-25T11:39:33.093Z,4.32
2022-08-25T11:42:33.160Z,5.40
2022-08-25T11:45:34.774Z,5.55
2022-08-25T11:48:18.484Z,3.55
2022-08-25T11:50:55.811Z,3.33
2022-08-25T11:53:33.781Z,3.90
2022-08-25T11:56:34.779Z,5.50
2022-08-25T11:59:04.564Z,6.97
2022-08-25T12:01:43.624Z,6.18
2022-08-25T12:04:29.993Z,7.93
2022-08-25T12:07:11.358Z,5.35
2022-08-25T12:09:53.925Z,4.63
2022-08-25T12:13:04.663Z,4.05
2022-08-25T12:15:56.328Z,8.70
2022-08-25T12:18:35.492Z,7.40
2022-08-25T12:21:10.672Z,2.78
2022-08-25T12:23:44.706Z,3.55
2022-08-25T12:26:42.516Z,3.92
2022-08-25T12:29:27.384Z,4.32
2022-08-25T12:32:33.885Z,1.83
2022-08-25T12:35:11.570Z,2.75
2022-08-25T12:38:09.376Z,3.80
2022-08-25T12:40:36.790Z,3.25
2022-08-25T12:43:12.359Z,4.00
2022-08-25T12:45:47.262Z,6.07
2022-08-25T12:48:27.240Z,4.68
2022-08-25T12:51:20.102Z,5.40
2022-08-25T12:54:11.373Z,3.05
2022-08-25T12:56:56.789Z,7.95
2022-08-25T12:59:43.773Z,6.43
2022-08-25T13:02:34.631Z,5.55
2022-08-25T13:05:37.126Z,2.53
2022-08-25T13:08:42.180Z,3.85
2022-08-25T13:11:35.683Z,6.13
2022-08-25T13:14:26.794Z,2.83
2022-08-25T13:16:57.703Z,10.88
2022-08-25T13:19:35.393Z,3.25
2022-08-25T13:22:16.226Z,3.72
2022-08-25T13:24:51.027Z,4.57
2022-08-25T13:27:24.461Z,8.80
2022-08-25T13:29:58.565Z,3.65
2022-08-25T13:32:45.170Z,5.07
2022-08-25T13:35:21.527Z,5.57
2022-08-25T13:37:50.636Z,2.78
2022-08-25T13:40:28.082Z,3.55
2022-08-25T13:43:03.814Z,3.55
2022-08-25T13:45:41.017Z,2.25
2022-08-25T13:48:22.980Z,5.15
2022-08-25T13:51:32.594Z,8.35
2022-08-25T13:54:08.538Z,9.80
2022-08-25T13:56:45.876Z,5.32
2022-08-25T13:59:27.024Z,7.18
2022-08-25T14:09:53.731Z,12.25
2022-08-25T14:12:31.899Z,4.90
2022-08-25T14:15:24.277Z,5.95
2022-08-25T14:18:04.891Z,6.03
2022-08-25T14:20:34.808Z,6.53
2022-08-25T14:23:18.865Z,4.22
2022-08-25T14:25:48.050Z,6.97
2022-08-25T14:28:23.467Z,5.40
2022-08-25T14:31:21.995Z,5.03
2022-08-25T14:33:57.685Z,5.13
2022-08-25T14:36:33.839Z,3.53
2022-08-25T14:39:08.888Z,3.42
2022-08-25T14:41:52.454Z,5.07
2022-08-25T14:44:23.204Z,11.55
2022-08-25T14:46:54.628Z,4.05
2022-08-25T14:49:33.070Z,4.03
2022-08-25T14:52:10.262Z,6.05
2022-08-25T14:54:41.647Z,4.70
2022-08-25T14:57:09.365Z,3.38
2022-08-25T14:59:43.398Z,10.77
2022-08-25T15:02:19.956Z,6.13
2022-08-25T15:04:56.163Z,5.93
2022-08-25T15:07:43.327Z,5.95
2022-08-25T15:10:13.565Z,4.95
2022-08-25T15:21:08.791Z,7.40
2022-08-25T15:23:37.539Z,5.35
2022-08-25T15:26:18.161Z,6.93
2022-08-25T15:28:49.300Z,2.80
2022-08-25T15:31:20.675Z,3.60
2022-08-25T15:34:01.736Z,3.80
2022-08-25T15:36:34.536Z,6.40
2022-08-25T15:39:08.018Z,2.63
2022-08-25T15:41:54.930Z,6.40
2022-08-25T15:44:42.902Z,3.33
2022-08-25T15:47:37.068Z,6.20
2022-08-25T15:50:17.755Z,19.52
2022-08-25T15:52:58.402Z,5.97
2022-08-25T15:55:39.604Z,5.35
2022-08-25T15:58:08.971Z,3.60
2022-08-25T16:00:39.545Z,6.57
2022-08-25T16:03:09.037Z,5.13
2022-08-25T16:05:48.021Z,4.45
2022-08-25T16:12:15.119Z,4.45
2022-08-25T16:14:47.706Z,5.65
2022-08-25T16:17:16.115Z,3.33
2022-08-25T16:19:43.680Z,7.55
2022-08-25T16:22:12.008Z,4.82
2022-08-25T16:24:42.073Z,8.95
2022-08-25T16:29:45.125Z,15.18
2022-08-25T16:32:14.299Z,7.18
2022-08-25T16:34:44.356Z,9.27
2022-08-25T16:37:14.513Z,11.63
2022-08-25T16:39:46.295Z,5.07
2022-08-25T16:42:15.474Z,3.38
2022-08-25T16:44:53.767Z,10.32
2022-08-25T16:47:25.113Z,3.45
2022-08-25T16:49:54.999Z,7.00
2022-08-25T16:52:44.268Z,6.53
2022-08-25T16:55:22.739Z,5.63
2022-08-25T16:57:56.666Z,5.32
2022-08-25T17:00:28.720Z,5.88
2022-08-25T17:02:59.850Z,4.30
2022-08-25T17:05:29.725Z,8.48
2022-08-25T17:08:22.075Z,4.20
2022-08-25T17:10:50.580Z,7.75
2022-08-25T17:13:18.596Z,5.60
2022-08-25T17:15:52.421Z,6.32
2022-08-25T17:18:23.994Z,3.70
2022-08-25T17:21:07.262Z,5.75
2022-08-25T17:23:37.917Z,3.75
2022-08-25T17:26:15.696Z,5.65
2022-08-25T17:28:44.390Z,7.78
2022-08-25T17:31:13.743Z,8.18
2022-08-25T17:33:45.191Z,3.97
2022-08-25T17:36:19.542Z,2.85
2022-08-25T17:38:48.130Z,5.32
2022-08-25T17:41:24.864Z,5.18
2022-08-25T17:43:53.180Z,5.70
2022-08-25T17:46:24.637Z,5.68
2022-08-25T17:48:53.472Z,7.15
2022-08-25T17:51:23.264Z,11.68
2022-08-25T17:53:53.402Z,10.65
2022-08-25T17:56:27.243Z,12.32
2022-08-25T17:59:01.802Z,8.40
2022-08-25T18:01:32.867Z,9.05
2022-08-25T18:04:02.921Z,10.48
2022-08-25T18:06:32.919Z,4.45
2022-08-25T18:09:06.729Z,5.18
2022-08-25T18:11:34.275Z,4.90
2022-08-25T18:17:23.159Z,11.70
2022-08-25T18:19:51.063Z,5.35
2022-08-25T18:22:19.524Z,3.17
2022-08-25T18:24:53.039Z,4.60
2022-08-25T18:27:28.967Z,6.03
2022-08-25T18:29:58.493Z,5.65
2022-08-25T18:32:27.621Z,5.97
2022-08-25T18:34:58.563Z,5.13
2022-08-25T18:37:47.020Z,3.03
2022-08-25T18:40:26.132Z,8.18
2022-08-25T18:42:59.512Z,3.97
2022-08-25T18:45:44.950Z,2.75
2022-08-25T18:48:12.592Z,5.63
2022-08-25T18:53:14.680Z,5.43
2022-08-25T18:55:44.166Z,7.72
2022-08-25T18:58:13.696Z,4.80
2022-08-25T19:00:43.682Z,3.80
2022-08-25T19:03:12.999Z,6.25
2022-08-25T19:08:21.762Z,7.82
2022-08-25T19:10:52.538Z,6.22
2022-08-25T19:13:22.742Z,4.85
2022-08-25T19:15:51.340Z,7.13
2022-08-25T19:18:26.041Z,8.40
2022-08-25T19:20:58.357Z,7.55
2022-08-25T19:23:26.778Z,6.38
2022-08-25T19:25:54.986Z,10.73
2022-08-25T19:28:25.819Z,6.18
2022-08-25T19:30:55.516Z,5.55
2022-08-25T19:33:42.731Z,10.27
2022-08-25T19:36:27.881Z,8.57
2022-08-25T19:38:58.705Z,15.93
2022-08-25T19:41:35.008Z,6.07
2022-08-25T19:44:05.564Z,9.07
2022-08-25T19:46:36.270Z,12.00
2022-08-25T19:49:26.316Z,14.60
2022-08-25T19:51:55.704Z,8.68
2022-08-25T19:54:33.231Z,10.70
2022-08-25T19:57:02.968Z,9.80
2022-08-25T19:59:42.749Z,8.30
2022-08-25T20:02:18.314Z,12.43
2022-08-25T20:04:49.774Z,13.57
2022-08-25T20:07:23.900Z,9.77
2022-08-25T20:09:53.954Z,8.25
2022-08-25T20:12:25.336Z,8.60
2022-08-25T20:14:55.850Z,7.53
2022-08-25T20:17:28.514Z,9.18
2022-08-25T20:19:59.885Z,7.65
2022-08-25T20:22:34.037Z,10.18
2022-08-25T20:25:13.139Z,11.07
2022-08-25T20:27:45.264Z,11.98
2022-08-25T20:30:23.576Z,13.07
2022-08-25T20:32:54.033Z,10.15
2022-08-25T20:35:26.813Z,10.40
2022-08-25T20:37:58.689Z,18.98
2022-08-25T20:40:29.325Z,8.48
2022-08-25T20:43:03.126Z,15.38
2022-08-25T20:45:31.512Z,15.10
2022-08-25T20:47:59.340Z,19.38
2022-08-25T20:50:28.883Z,13.73
2022-08-25T20:52:58.980Z,11.45
2022-08-25T20:55:29.378Z,24.67
2022-08-25T20:58:22.885Z,23.73
2022-08-25T21:01:01.691Z,22.55
2022-08-25T21:03:29.150Z,29.13
2022-08-25T21:05:59.071Z,26.37
2022-08-25T21:08:28.062Z,25.45
2022-08-25T21:10:56.965Z,37.10
2022-08-25T21:13:24.855Z,34.65
2022-08-25T21:15:52.624Z,48.13
2022-08-25T21:18:20.526Z,47.75
2022-08-25T21:20:48.897Z,55.50
2022-08-25T21:23:16.805Z,60.55
2022-08-25T21:25:47.313Z,49.67
2022-08-25T21:28:16.734Z,52.47
2022-08-25T21:30:44.707Z,52.60
2022-08-25T21:33:15.654Z,48.78
2022-08-25T21:35:47.511Z,46.72
2022-08-25T21:38:19.691Z,52.05
2022-08-25T21:40:49.091Z,47.10
2022-08-25T21:43:18.606Z,46.05
2022-08-25T21:45:47.233Z,40.78
2022-08-25T21:48:15.741Z,47.08
2022-08-25T21:50:43.447Z,43.03
2022-08-25T21:53:12.226Z,47.05
2022-08-25T21:55:42.091Z,43.60
2022-08-25T21:58:09.966Z,45.63
2022-08-25T22:00:37.279Z,44.85
2022-08-25T22:03:04.970Z,42.83
2022-08-25T22:05:47.716Z,39.90
2022-08-25T22:08:17.018Z,44.72
2022-08-25T22:10:47.391Z,40.63
2022-08-25T22:13:14.805Z,43.80
2022-08-25T22:15:42.250Z,42.75
2022-08-25T22:18:10.852Z,47.05
2022-08-25T22:20:39.262Z,49.78
2022-08-25T22:23:10.847Z,42.30
2022-08-25T22:25:55.540Z,47.97
2022-08-25T22:28:23.806Z,42.88
2022-08-25T22:30:52.135Z,49.20
2022-08-25T22:33:20.267Z,42.15
2022-08-25T22:35:48.206Z,48.50
2022-08-25T22:38:18.627Z,40.28
2022-08-25T22:40:47.610Z,45.17
2022-08-25T22:43:15.216Z,38.75
2022-08-25T22:45:43.222Z,37.83
2022-08-25T22:48:10.657Z,33.63
2022-08-25T22:50:39.697Z,36.60
2022-08-25T22:53:08.696Z,34.03
2022-08-25T22:55:42.859Z,40.85
2022-08-25T22:58:11.825Z,35.03
2022-08-25T23:00:41.223Z,38.40
2022-08-25T23:03:10.668Z,37.00
2022-08-25T23:05:40.677Z,36.33
2022-08-25T23:08:12.241Z,40.63
2022-08-25T23:10:51.751Z,40.28
2022-08-25T23:13:34.389Z,39.97
2022-08-25T23:16:03.838Z,38.50
2022-08-25T23:18:35.729Z,31.45
2022-08-25T23:21:24.134Z,34.58
2022-08-25T23:23:55.789Z,42.45
2022-08-25T23:26:23.700Z,38.45
2022-08-25T23:28:51.274Z,36.50
2022-08-25T23:31:24.335Z,33.00
2022-08-25T23:33:52.596Z,31.77
2022-08-25T23:36:22.026Z,34.17
2022-08-25T23:38:51.731Z,36.27
2022-08-25T23:41:23.258Z,31.90
2022-08-25T23:43:54.833Z,39.45
2022-08-25T23:46:24.483Z,32.03
2022-08-25T23:48:56.697Z,32.90
2022-08-25T23:51:34.330Z,35.38
2022-08-25T23:56:34.651Z,30.25
2022-08-25T23:59:14.808Z,31.05
